GMAD/AGA METAR and TAF weather

Enter ICAO airport designator
Station Type Date Time Source
GMAD METAR 2021/03/03 01:00 UTC NOAA

GMAD 030100Z 06003KT 040V110 CAVOK 11/11 Q1019 NOSIG


Station Type Date Time Source
GMAD Decoded METAR 2021/03/03 01:00 UTC NOAA

Agadir Al Massira, Morocco (GMAD) 30-20N 009-24W 74M
Mar 02, 2021 - 08:00 PM EST / 2021.03.03 0100 UTC
Wind: from the ENE (060 degrees) at 3 MPH (3 KT) (direction variable):0
Visibility: greater than 7 mile(s):0
Temperature: 51 F (11 C)
Dew Point: 51 F (11 C)
Relative Humidity: 100%
Pressure (altimeter): 30.09 in. Hg (1019 hPa)
ob: GMAD 030100Z 06003KT 040V110 CAVOK 11/11 Q1019 NOSIG
cycle: 1

Station Type Date Time Source
GMAD TAF 2021/03/02 18:15 UTC NOAA

TAF TAF GMAD 021700Z 0218/0324 20010KT 8000 NSC

Example: see airport list